Pagrindinis puslapis
METAR-TAF:

METAR-TAF

Oro uostai :

Ankaros oro uostas

Ankara Esenboğa, Turkija

platuma: 40-07N, ilguma: 032-59E, Aukštis: 953 m

Dabartinis oras

Ataskaita buvo paskelbta 28 minutes, ne 05:20 UTC
Ramus vėjas
Temperatūra 5°C
Drėgmė 56%
Slėgis 1014 hPa
Matomumas 10 km arba daugiau
nėra debesų žemiau 1500 m ir nėra kamuolinių lietaus debesų

METAR: LTAC 100520Z 00000KT CAVOK 05/M03 Q1014 NOSIG

Laikas: 08:48 (05:48 UTC)

Prognozė

Ataskaita buvo paskelbta 1 valandą ir 8 minutes, ne 04:40 UTC
Prognozė galioja nuo 10 metu 06 UTC su 11 metu 06 UTC
Vėjas 2 kt nuo kintamojo kryptimis
Matomumas 10 km arba daugiau
Išsisklaidę debesys ne aukštis 4000 ft
Laikinai
nuo 10 metu 13 UTC su 10 metu 17 UTC
Vėjas 12 kt iš Šiaurės/Šiaurės Rytų
Tapsmas
nuo 10 metu 16 UTC su 10 metu 18 UTC
Matomumas 10 km arba daugiau
nėra debesų žemiau 1500 m ir nėra kamuolinių lietaus debesų

TAF: LTAC 100440Z 1006/1106 VRB02KT 9999 SCT040 TEMPO 1013/1017 03012KT BECMG 1016/1018 CAVOK

Orai ataskaitas ir orų prognozės (METAR, TAF).

turimą stotys yra geltonos ir raudonos taškus žemėlapyje.

Perkelti pele per norėdami pamatyti stoties vardą.

Tada spustelėkite, norėdami matyti oro stebėjimo ir prognozės.

Norėdami pakeisti žemėlapį: spustelėkite ant žalios mygtukų su juodo kryžiaus žemyn,; žalią mygtuką su brūkšneliu, jei norite nutolinti; arba žalių rodyklių gretimoms žemėlapius.


METAR-TAF: